createdAt,value
2022-11-15T00:00:16.876Z,98296.28
2022-11-15T00:05:37.500Z,98294.78
2022-11-15T00:10:59.661Z,98287.03
2022-11-15T00:16:20.073Z,98281.75
2022-11-15T00:21:40.313Z,98270.47
2022-11-15T00:27:01.066Z,98271.13
2022-11-15T00:32:21.536Z,98269.22
2022-11-15T00:37:41.917Z,98263.13
2022-11-15T00:43:02.517Z,98258.63
2022-11-15T00:48:23.559Z,98253.47
2022-11-15T00:53:43.952Z,98259.59
2022-11-15T00:59:04.300Z,98247.50
2022-11-15T01:04:24.560Z,98243.16
2022-11-15T01:09:44.807Z,98238.66
2022-11-15T01:15:06.523Z,98230.78
2022-11-15T01:20:26.829Z,98223.69
2022-11-15T01:25:47.219Z,98222.59
2022-11-15T01:31:13.285Z,98209.56
2022-11-15T01:36:33.982Z,98211.47
2022-11-15T01:41:54.551Z,98210.94
2022-11-15T01:47:21.909Z,98204.00
2022-11-15T01:52:43.842Z,98188.09
2022-11-15T01:58:06.680Z,98188.56
2022-11-15T02:03:37.934Z,98179.66
2022-11-15T02:08:59.380Z,98170.66
2022-11-15T02:14:21.763Z,98170.97
2022-11-15T02:20:06.585Z,98165.56
2022-11-15T02:25:50.348Z,98160.59
2022-11-15T02:31:19.582Z,98167.72
2022-11-15T02:36:47.128Z,98156.88
2022-11-15T02:42:34.872Z,98134.75
2022-11-15T02:47:59.390Z,98142.25
2022-11-15T02:53:25.401Z,98131.97
2022-11-15T02:59:22.732Z,98135.94
2022-11-15T03:04:54.242Z,98138.81
2022-11-15T03:10:25.900Z,98132.03
2022-11-15T03:16:03.897Z,98127.00
2022-11-15T03:21:26.157Z,98114.41
2022-11-15T03:26:49.252Z,98118.75
2022-11-15T03:32:16.598Z,98111.44
2022-11-15T03:38:14.398Z,98110.78
2022-11-15T03:43:43.024Z,98102.22
2022-11-15T03:49:15.264Z,98099.78
2022-11-15T03:54:36.020Z,98112.81
2022-11-15T03:59:56.289Z,98097.19
2022-11-15T04:05:16.838Z,98102.38
2022-11-15T04:10:37.136Z,98102.50
2022-11-15T04:15:57.707Z,98093.28
2022-11-15T04:21:36.330Z,98087.31
2022-11-15T04:26:56.576Z,98091.66
2022-11-15T04:32:16.947Z,98085.03
2022-11-15T04:37:37.342Z,98090.03
2022-11-15T04:43:03.368Z,98085.56
2022-11-15T04:48:26.799Z,98075.25
2022-11-15T04:53:47.182Z,98074.28
2022-11-15T04:59:07.449Z,98074.41
2022-11-15T05:04:28.227Z,98074.56
2022-11-15T05:09:48.605Z,98064.53
2022-11-15T05:15:09.934Z,98068.06
2022-11-15T05:20:30.337Z,98062.38
2022-11-15T05:25:50.596Z,98063.47
2022-11-15T05:31:14.649Z,98060.22
2022-11-15T05:36:39.282Z,98056.69
2022-11-15T05:42:11.807Z,98057.66
2022-11-15T05:47:33.015Z,98057.00
2022-11-15T05:52:53.486Z,98059.72
2022-11-15T05:58:13.927Z,98056.59
2022-11-15T06:03:34.724Z,98060.94
2022-11-15T06:08:55.237Z,98057.56
2022-11-15T06:14:15.963Z,98061.75
2022-11-15T06:19:36.563Z,98062.56
2022-11-15T06:25:00.240Z,98060.81
2022-11-15T06:30:26.965Z,98065.97
2022-11-15T06:35:47.650Z,98071.94
2022-11-15T06:41:11.395Z,98063.25
2022-11-15T06:46:32.412Z,98071.66
2022-11-15T06:51:53.191Z,98072.97
2022-11-15T06:57:13.363Z,98073.50
2022-11-15T07:02:33.603Z,98080.28
2022-11-15T07:07:59.172Z,98076.47
2022-11-15T07:13:19.928Z,98079.59
2022-11-15T07:18:42.088Z,98078.88
2022-11-15T07:24:02.410Z,98080.06
2022-11-15T07:29:22.403Z,98084.63
2022-11-15T07:34:42.952Z,98090.72
2022-11-15T07:40:03.884Z,98090.94
2022-11-15T07:45:27.531Z,98084.91
2022-11-15T07:50:48.571Z,98090.00
2022-11-15T07:56:09.461Z,98081.25
2022-11-15T08:01:30.339Z,98071.50
2022-11-15T08:06:51.162Z,98077.41
2022-11-15T08:12:11.868Z,98076.38
2022-11-15T08:17:34.072Z,98066.75
2022-11-15T08:22:54.631Z,98060.53
2022-11-15T08:28:18.774Z,98062.72
2022-11-15T08:33:39.472Z,98053.91
2022-11-15T08:39:00.394Z,98070.66
2022-11-15T08:44:20.604Z,98061.38
2022-11-15T08:49:41.111Z,98054.97
2022-11-15T08:55:01.781Z,98059.06
2022-11-15T09:00:22.547Z,98051.19
2022-11-15T09:05:44.216Z,98051.53
2022-11-15T09:11:09.652Z,98046.56
2022-11-15T09:16:32.248Z,98042.25
2022-11-15T09:21:52.960Z,98038.88
2022-11-15T09:27:14.413Z,98033.69
2022-11-15T09:32:39.022Z,98042.75
2022-11-15T09:38:00.413Z,98030.59
2022-11-15T09:43:42.720Z,98023.97
2022-11-15T09:49:04.377Z,98018.75
2022-11-15T09:54:53.780Z,98029.13
2022-11-15T10:00:23.945Z,98020.72
2022-11-15T10:05:26.453Z,98010.31
2022-11-15T10:10:40.083Z,98006.72
2022-11-15T10:15:46.675Z,98003.41
2022-11-15T10:21:00.492Z,97996.91
2022-11-15T10:26:06.883Z,97987.06
2022-11-15T10:31:30.132Z,97980.41
2022-11-15T10:36:33.530Z,97973.97
2022-11-15T10:41:41.516Z,97966.69
2022-11-15T10:46:47.440Z,97969.94
2022-11-15T10:51:54.065Z,97966.38
2022-11-15T10:57:02.162Z,97959.03
2022-11-15T11:02:24.038Z,97958.69
2022-11-15T11:07:29.998Z,97947.16
2022-11-15T11:12:34.322Z,97935.63
2022-11-15T11:17:54.824Z,97930.41
2022-11-15T11:23:41.357Z,97923.38
2022-11-15T11:28:49.793Z,97915.91
2022-11-15T11:34:30.776Z,97906.50
2022-11-15T11:39:52.685Z,97899.53
2022-11-15T11:45:33.003Z,97901.13
2022-11-15T11:50:38.264Z,97897.22
2022-11-15T11:55:54.235Z,97899.81
2022-11-15T12:01:21.328Z,97885.75
2022-11-15T12:06:43.693Z,97874.25
2022-11-15T12:11:48.314Z,97869.41
2022-11-15T12:16:51.158Z,97860.03
2022-11-15T12:22:04.290Z,97849.63
2022-11-15T12:27:28.576Z,97841.50
2022-11-15T12:32:34.938Z,97838.28
2022-11-15T12:37:39.895Z,97831.81
2022-11-15T12:42:58.350Z,97824.84
2022-11-15T12:48:18.610Z,97818.03
2022-11-15T12:53:26.591Z,97810.59
2022-11-15T12:58:53.730Z,97806.22
2022-11-15T13:04:20.650Z,97808.81
2022-11-15T13:09:33.039Z,97802.06
2022-11-15T13:14:45.856Z,97798.59
2022-11-15T13:19:53.571Z,97801.88
2022-11-15T13:24:56.275Z,97792.00
2022-11-15T13:29:58.552Z,97791.72
2022-11-15T13:35:02.982Z,97788.50
2022-11-15T13:40:22.788Z,97781.19
2022-11-15T13:45:25.816Z,97785.09
2022-11-15T13:50:37.759Z,97777.03
2022-11-15T13:55:39.709Z,97786.13
2022-11-15T14:00:46.240Z,97781.63
2022-11-15T14:06:13.218Z,97773.09
2022-11-15T14:11:19.387Z,97767.13
2022-11-15T14:16:22.754Z,97760.03
2022-11-15T14:21:24.996Z,97758.28
2022-11-15T14:26:32.987Z,97760.59
2022-11-15T14:31:38.649Z,97754.13
2022-11-15T14:36:45.835Z,97747.19
2022-11-15T14:41:47.821Z,97739.44
2022-11-15T14:46:50.127Z,97746.44
2022-11-15T14:51:52.130Z,97739.50
2022-11-15T14:56:54.341Z,97737.91
2022-11-15T15:01:56.534Z,97732.75
2022-11-15T15:06:58.633Z,97732.94
2022-11-15T15:12:06.009Z,97733.75
2022-11-15T15:17:08.805Z,97730.38
2022-11-15T15:22:22.775Z,97716.66
2022-11-15T15:27:27.292Z,97711.66
2022-11-15T15:32:29.302Z,97723.28
2022-11-15T15:37:34.169Z,97714.72
2022-11-15T15:42:36.123Z,97720.56
2022-11-15T15:47:38.952Z,97716.69
2022-11-15T15:52:40.772Z,97714.75
2022-11-15T15:57:42.801Z,97712.94
2022-11-15T16:02:44.892Z,97710.00
2022-11-15T16:07:48.783Z,97718.25
2022-11-15T16:12:50.850Z,97705.00
2022-11-15T16:17:55.608Z,97705.47
2022-11-15T16:22:57.801Z,97705.16
2022-11-15T16:27:59.846Z,97703.03
2022-11-15T16:33:01.867Z,97700.13
2022-11-15T16:38:03.698Z,97698.19
2022-11-15T16:43:06.784Z,97703.03
2022-11-15T16:48:20.807Z,97700.41
2022-11-15T16:53:23.762Z,97683.28
2022-11-15T16:58:26.112Z,97688.28
2022-11-15T17:03:28.854Z,97692.59
2022-11-15T17:08:31.250Z,97682.25
2022-11-15T17:13:36.414Z,97682.88
2022-11-15T17:18:39.077Z,97682.38
2022-11-15T17:23:41.120Z,97671.56
2022-11-15T17:28:43.117Z,97677.84
2022-11-15T17:33:45.043Z,97673.16
2022-11-15T17:38:50.525Z,97671.84
2022-11-15T17:43:53.152Z,97670.22
2022-11-15T17:48:56.447Z,97674.75
2022-11-15T17:53:58.697Z,97669.28
2022-11-15T17:59:01.291Z,97660.91
2022-11-15T18:04:08.060Z,97661.19
2022-11-15T18:09:09.910Z,97655.34
2022-11-15T18:14:14.766Z,97640.31
2022-11-15T18:19:16.693Z,97634.66
2022-11-15T18:24:18.554Z,97640.44
2022-11-15T18:29:21.952Z,97634.28
2022-11-15T18:34:27.195Z,97629.72
2022-11-15T18:39:29.496Z,97627.75
2022-11-15T18:44:31.500Z,97619.53
2022-11-15T18:49:33.452Z,97615.00
2022-11-15T18:54:35.309Z,97612.88
2022-11-15T18:59:37.412Z,97609.13
2022-11-15T19:04:39.612Z,97616.34
2022-11-15T19:09:41.537Z,97612.31
2022-11-15T19:14:43.643Z,97610.19
2022-11-15T19:19:45.558Z,97605.19
2022-11-15T19:24:47.554Z,97602.25
2022-11-15T19:29:49.554Z,97582.59
2022-11-15T19:34:51.302Z,97591.44
2022-11-15T19:39:53.128Z,97600.13
2022-11-15T19:44:55.083Z,97595.66
2022-11-15T19:49:56.822Z,97594.38
2022-11-15T19:54:58.818Z,97597.00
2022-11-15T20:00:06.792Z,97585.38
2022-11-15T20:05:12.918Z,97586.00
2022-11-15T20:10:20.691Z,97580.78
2022-11-15T20:15:22.947Z,97576.09
2022-11-15T20:20:25.561Z,97572.72
2022-11-15T20:25:27.459Z,97583.53
2022-11-15T20:30:29.285Z,97579.69
2022-11-15T20:35:31.270Z,97577.75
2022-11-15T20:40:33.324Z,97570.78
2022-11-15T20:45:35.177Z,97563.00
2022-11-15T20:50:42.664Z,97560.22
2022-11-15T20:55:47.977Z,97552.97
2022-11-15T21:00:50.144Z,97559.50
2022-11-15T21:05:53.996Z,97560.31
2022-11-15T21:11:14.420Z,97561.13
2022-11-15T21:16:17.246Z,97546.50
2022-11-15T21:21:19.078Z,97532.31
2022-11-15T21:26:20.867Z,97533.25
2022-11-15T21:31:23.083Z,97522.81
2022-11-15T21:36:25.288Z,97521.03
2022-11-15T21:41:27.406Z,97516.03
2022-11-15T21:46:30.377Z,97517.81
2022-11-15T21:51:32.590Z,97510.75
2022-11-15T21:56:34.397Z,97504.13
2022-11-15T22:01:54.666Z,97500.06
2022-11-15T22:06:56.553Z,97490.00
2022-11-15T22:11:58.380Z,97502.53
2022-11-15T22:17:00.301Z,97494.94
2022-11-15T22:22:02.193Z,97490.63
2022-11-15T22:27:04.207Z,97485.31
2022-11-15T22:32:06.045Z,97474.88
2022-11-15T22:37:20.592Z,97475.53
2022-11-15T22:42:24.110Z,97463.63
2022-11-15T22:47:28.122Z,97445.75
2022-11-15T22:52:30.001Z,97434.78
2022-11-15T22:57:31.885Z,97429.50
2022-11-15T23:02:33.714Z,97433.84
2022-11-15T23:07:35.655Z,97424.66
2022-11-15T23:12:56.051Z,97405.03
2022-11-15T23:17:57.961Z,97411.94
2022-11-15T23:22:59.911Z,97406.94
2022-11-15T23:28:05.658Z,97399.06
2022-11-15T23:33:31.405Z,97389.28
2022-11-15T23:38:37.367Z,97394.13
2022-11-15T23:43:39.290Z,97377.56
2022-11-15T23:48:41.176Z,97382.56
2022-11-15T23:53:43.169Z,97381.59
2022-11-15T23:58:46.155Z,97370.97
